createdAt,value
2022-12-31T00:02:21.317Z,14.60
2022-12-31T00:04:49.017Z,12.10
2022-12-31T00:07:16.658Z,12.80
2022-12-31T00:09:44.881Z,14.10
2022-12-31T00:12:13.540Z,12.50
2022-12-31T00:14:41.076Z,15.00
2022-12-31T00:17:09.501Z,13.50
2022-12-31T00:19:38.797Z,14.30
2022-12-31T00:22:06.512Z,14.30
2022-12-31T00:24:35.690Z,13.10
2022-12-31T00:27:04.105Z,15.80
2022-12-31T00:29:32.107Z,13.50
2022-12-31T00:31:59.760Z,12.70
2022-12-31T00:34:29.052Z,12.80
2022-12-31T00:36:57.240Z,13.90
2022-12-31T00:39:26.720Z,17.50
2022-12-31T00:41:54.389Z,15.00
2022-12-31T00:44:23.786Z,14.30
2022-12-31T00:46:51.407Z,23.50
2022-12-31T00:49:45.891Z,14.70
2022-12-31T00:52:15.641Z,15.60
2022-12-31T00:54:45.632Z,15.30
2022-12-31T00:57:13.405Z,15.70
2022-12-31T00:59:41.084Z,16.30
2022-12-31T01:02:08.860Z,16.10
2022-12-31T01:04:37.122Z,16.00
2022-12-31T01:07:06.113Z,15.90
2022-12-31T01:09:35.302Z,15.10
2022-12-31T01:12:05.037Z,16.50
2022-12-31T01:14:33.633Z,16.00
2022-12-31T01:17:01.351Z,16.20
2022-12-31T01:19:31.485Z,18.10
2022-12-31T01:22:00.748Z,17.30
2022-12-31T01:24:28.529Z,14.00
2022-12-31T01:26:57.475Z,17.40
2022-12-31T01:29:26.904Z,15.80
2022-12-31T01:31:54.784Z,17.70
2022-12-31T01:34:23.961Z,14.00
2022-12-31T01:36:53.809Z,16.10
2022-12-31T01:39:23.391Z,16.30
2022-12-31T01:41:51.392Z,16.70
2022-12-31T01:44:27.138Z,18.00
2022-12-31T01:47:03.691Z,15.80
2022-12-31T01:50:24.991Z,16.90
2022-12-31T01:53:00.646Z,16.90
2022-12-31T01:56:02.395Z,15.40
2022-12-31T01:58:52.201Z,16.70
2022-12-31T02:01:30.727Z,17.50
2022-12-31T02:04:06.596Z,16.50
2022-12-31T02:06:47.191Z,16.30
2022-12-31T02:09:16.531Z,16.80
2022-12-31T02:11:45.939Z,17.30
2022-12-31T02:14:20.725Z,15.90
2022-12-31T02:17:07.496Z,15.40
2022-12-31T02:20:04.069Z,15.60
2022-12-31T02:23:04.753Z,14.90
2022-12-31T02:25:50.196Z,15.40
2022-12-31T02:28:51.364Z,15.90
2022-12-31T02:31:26.557Z,16.30
2022-12-31T02:34:24.180Z,15.30
2022-12-31T02:36:55.009Z,17.60
2022-12-31T02:39:23.102Z,16.40
2022-12-31T02:41:52.117Z,15.60
2022-12-31T02:44:30.847Z,17.20
2022-12-31T02:47:17.325Z,17.90
2022-12-31T02:54:11.837Z,16.70
2022-12-31T02:56:57.266Z,14.90
2022-12-31T02:59:58.035Z,16.20
2022-12-31T03:02:29.942Z,16.30
2022-12-31T03:05:01.217Z,16.30
2022-12-31T03:07:33.013Z,16.50
2022-12-31T03:10:01.720Z,16.60
2022-12-31T03:12:48.546Z,15.70
2022-12-31T03:15:28.671Z,15.90
2022-12-31T03:18:11.900Z,14.60
2022-12-31T03:21:05.059Z,15.40
2022-12-31T03:23:39.308Z,16.50
2022-12-31T03:26:10.576Z,15.80
2022-12-31T03:28:47.420Z,15.90
2022-12-31T03:31:19.012Z,15.50
2022-12-31T03:33:46.707Z,15.10
2022-12-31T03:36:15.229Z,15.60
2022-12-31T03:38:48.577Z,15.40
2022-12-31T03:41:20.150Z,16.00
2022-12-31T03:43:50.083Z,15.00
2022-12-31T03:46:17.801Z,16.10
2022-12-31T03:48:47.043Z,15.20
2022-12-31T03:51:16.443Z,15.50
2022-12-31T03:53:45.431Z,16.20
2022-12-31T03:56:13.104Z,14.80
2022-12-31T03:58:42.696Z,13.90
2022-12-31T04:01:13.845Z,15.40
2022-12-31T04:03:41.437Z,15.70
2022-12-31T04:06:09.064Z,14.20
2022-12-31T04:08:38.114Z,13.90
2022-12-31T04:11:06.716Z,14.90
2022-12-31T04:13:35.284Z,14.90
2022-12-31T04:16:03.810Z,13.70
2022-12-31T04:18:32.592Z,15.20
2022-12-31T04:21:04.786Z,15.40
2022-12-31T04:23:34.555Z,14.90
2022-12-31T04:26:02.701Z,13.70
2022-12-31T04:28:33.024Z,13.10
2022-12-31T04:31:00.620Z,12.10
2022-12-31T04:33:28.218Z,14.00
2022-12-31T04:36:09.225Z,12.60
2022-12-31T04:38:38.468Z,12.90
2022-12-31T04:41:19.394Z,12.00
2022-12-31T04:43:55.549Z,11.70
2022-12-31T04:46:28.969Z,11.40
2022-12-31T04:49:00.030Z,11.10
2022-12-31T04:52:45.523Z,10.40
2022-12-31T04:55:14.510Z,9.40
2022-12-31T04:57:42.161Z,10.60
2022-12-31T05:00:13.605Z,10.30
2022-12-31T05:02:42.122Z,10.70
2022-12-31T05:05:11.508Z,11.30
2022-12-31T05:07:40.101Z,9.30
2022-12-31T05:10:08.065Z,10.80
2022-12-31T05:12:35.673Z,10.30
2022-12-31T05:15:03.651Z,10.50
2022-12-31T05:17:31.446Z,9.80
2022-12-31T05:19:59.729Z,10.50
2022-12-31T05:22:31.335Z,11.00
2022-12-31T05:25:00.840Z,10.30
2022-12-31T05:27:32.638Z,11.10
2022-12-31T05:30:00.441Z,10.40
2022-12-31T05:32:28.378Z,10.40
2022-12-31T05:34:59.430Z,10.30
2022-12-31T05:37:29.997Z,10.50
2022-12-31T05:39:59.917Z,10.50
2022-12-31T05:42:30.633Z,10.60
2022-12-31T05:44:59.284Z,10.10
2022-12-31T05:47:27.770Z,10.90
2022-12-31T05:51:16.487Z,9.50
2022-12-31T05:53:44.154Z,9.20
2022-12-31T05:56:12.377Z,9.80
2022-12-31T05:58:39.979Z,8.90
2022-12-31T06:01:08.967Z,10.30
2022-12-31T06:03:36.646Z,8.90
2022-12-31T06:06:07.514Z,10.00
2022-12-31T06:08:37.645Z,10.60
2022-12-31T06:11:05.685Z,9.80
2022-12-31T06:13:33.384Z,11.10
2022-12-31T06:16:08.855Z,11.20
2022-12-31T06:18:37.154Z,9.80
2022-12-31T06:21:07.676Z,9.60
2022-12-31T06:23:37.359Z,8.50
2022-12-31T06:26:06.257Z,9.70
2022-12-31T06:28:34.831Z,9.70
2022-12-31T06:31:05.162Z,9.00
2022-12-31T06:33:34.773Z,8.80
2022-12-31T06:36:05.935Z,9.40
2022-12-31T06:38:36.855Z,9.10
2022-12-31T06:41:06.877Z,9.40
2022-12-31T06:43:35.376Z,9.60
2022-12-31T06:46:06.576Z,9.00
2022-12-31T06:48:34.602Z,10.10
2022-12-31T06:51:08.608Z,9.60
2022-12-31T06:53:43.390Z,9.40
2022-12-31T06:56:17.098Z,8.70
2022-12-31T06:58:47.593Z,8.60
2022-12-31T07:01:36.586Z,9.20
2022-12-31T07:04:43.584Z,8.00
2022-12-31T07:07:26.171Z,8.70
2022-12-31T07:10:14.267Z,9.10
2022-12-31T07:12:41.779Z,9.60
2022-12-31T07:15:47.489Z,8.20
2022-12-31T07:18:44.626Z,9.00
2022-12-31T07:23:46.276Z,7.80
2022-12-31T07:26:28.429Z,8.30
2022-12-31T07:29:22.604Z,7.50
2022-12-31T07:32:16.550Z,7.30
2022-12-31T07:34:51.955Z,7.10
2022-12-31T07:37:51.398Z,6.60
2022-12-31T07:41:07.400Z,7.30
2022-12-31T07:43:47.145Z,7.20
2022-12-31T07:46:42.732Z,7.30
2022-12-31T07:49:14.805Z,7.90
2022-12-31T07:55:43.602Z,6.10
2022-12-31T07:58:49.362Z,6.60
2022-12-31T08:04:01.394Z,8.30
2022-12-31T08:07:04.177Z,9.50
2022-12-31T08:09:49.681Z,8.10
2022-12-31T08:12:19.151Z,6.40
2022-12-31T08:14:48.228Z,7.10
2022-12-31T08:17:19.134Z,6.40
2022-12-31T08:19:47.246Z,6.30
2022-12-31T08:22:30.620Z,6.10
2022-12-31T08:25:16.465Z,5.70
2022-12-31T08:28:12.720Z,7.00
2022-12-31T08:31:15.612Z,7.90
2022-12-31T08:34:06.779Z,6.60
2022-12-31T08:36:56.397Z,7.40
2022-12-31T08:39:58.184Z,6.10
2022-12-31T08:42:43.334Z,5.90
2022-12-31T08:45:11.051Z,6.00
2022-12-31T08:47:59.799Z,6.70
2022-12-31T08:51:22.437Z,5.50
2022-12-31T08:53:52.738Z,6.20
2022-12-31T08:56:31.800Z,11.50
2022-12-31T08:59:40.824Z,5.90
2022-12-31T09:02:28.152Z,7.20
2022-12-31T09:05:26.486Z,7.00
2022-12-31T09:08:14.630Z,6.30
2022-12-31T09:10:50.863Z,8.40
2022-12-31T09:14:08.424Z,6.40
2022-12-31T09:17:09.086Z,5.50
2022-12-31T09:19:37.792Z,7.60
2022-12-31T09:22:06.712Z,5.80
2022-12-31T09:24:37.096Z,6.00
2022-12-31T09:27:10.604Z,6.40
2022-12-31T09:29:48.433Z,5.60
2022-12-31T09:32:41.166Z,5.70
2022-12-31T09:35:19.960Z,9.10
2022-12-31T09:37:52.401Z,5.90
2022-12-31T09:40:47.644Z,5.50
2022-12-31T09:43:36.748Z,5.40
2022-12-31T09:46:28.476Z,6.00
2022-12-31T09:49:19.679Z,10.20
2022-12-31T09:52:19.719Z,7.20
2022-12-31T09:55:23.436Z,10.60
2022-12-31T09:58:06.249Z,8.00
2022-12-31T10:00:52.551Z,21.40
2022-12-31T10:03:54.338Z,10.10
2022-12-31T10:06:43.620Z,13.40
2022-12-31T10:09:44.456Z,8.90
2022-12-31T10:12:49.700Z,69.40
2022-12-31T10:15:37.549Z,13.40
2022-12-31T10:18:29.027Z,46.30
2022-12-31T10:21:23.294Z,63.30
2022-12-31T10:24:19.725Z,52.90
2022-12-31T10:27:06.504Z,50.20
2022-12-31T10:30:13.344Z,64.90
2022-12-31T10:32:57.753Z,17.30
2022-12-31T10:35:50.455Z,12.90
2022-12-31T10:38:40.486Z,6.30
2022-12-31T10:41:54.395Z,45.00
2022-12-31T10:44:38.555Z,12.30
2022-12-31T10:47:54.091Z,12.70
2022-12-31T10:50:45.060Z,51.60
2022-12-31T10:53:31.053Z,15.70
2022-12-31T10:56:42.932Z,37.60
2022-12-31T10:59:53.866Z,77.30
2022-12-31T11:02:59.159Z,54.90
2022-12-31T11:06:05.271Z,12.80
2022-12-31T11:08:39.518Z,12.80
2022-12-31T11:11:31.702Z,5.70
2022-12-31T11:14:09.404Z,21.90
2022-12-31T11:16:52.565Z,7.30
2022-12-31T11:19:38.914Z,16.90
2022-12-31T11:22:50.286Z,22.70
2022-12-31T11:25:38.737Z,15.90
2022-12-31T11:28:28.004Z,24.10
2022-12-31T11:31:20.521Z,15.10
2022-12-31T11:34:17.822Z,9.40
2022-12-31T11:37:22.290Z,7.60
2022-12-31T11:40:21.295Z,22.50
2022-12-31T11:43:01.785Z,14.90
2022-12-31T11:45:53.838Z,17.80
2022-12-31T11:48:43.472Z,20.50
2022-12-31T11:51:17.828Z,22.20
2022-12-31T11:53:57.247Z,17.70
2022-12-31T11:56:29.728Z,20.30
2022-12-31T11:59:03.643Z,15.00
2022-12-31T12:02:00.534Z,7.00
2022-12-31T12:04:28.237Z,6.80
2022-12-31T12:06:57.487Z,26.40
2022-12-31T12:09:30.040Z,18.10
2022-12-31T12:12:00.473Z,15.40
2022-12-31T12:14:33.068Z,6.40
2022-12-31T12:17:05.760Z,7.70
2022-12-31T12:19:36.242Z,62.00
2022-12-31T12:22:25.880Z,20.50
2022-12-31T12:24:58.709Z,7.00
2022-12-31T12:27:31.601Z,11.60
2022-12-31T12:30:19.336Z,8.10
2022-12-31T12:33:02.056Z,7.50
2022-12-31T12:35:34.039Z,4.70
2022-12-31T12:38:07.552Z,6.50
2022-12-31T12:40:35.897Z,6.10
2022-12-31T12:43:04.300Z,5.20
2022-12-31T12:45:51.869Z,5.30
2022-12-31T12:48:31.476Z,7.10
2022-12-31T12:51:29.830Z,4.50
2022-12-31T12:54:18.214Z,5.00
2022-12-31T12:57:04.466Z,7.30
2022-12-31T12:59:48.687Z,10.70
2022-12-31T13:02:48.606Z,5.10
2022-12-31T13:05:28.208Z,4.50
2022-12-31T13:08:06.070Z,9.20
2022-12-31T13:10:48.418Z,5.70
2022-12-31T13:13:26.060Z,15.20
2022-12-31T13:16:22.375Z,12.10
2022-12-31T13:18:53.044Z,5.50
2022-12-31T13:21:21.136Z,7.10
2022-12-31T13:23:57.105Z,11.80
2022-12-31T13:26:40.878Z,18.90
2022-12-31T13:29:18.262Z,34.70
2022-12-31T13:31:50.199Z,21.70
2022-12-31T13:34:27.225Z,10.50
2022-12-31T13:36:58.494Z,21.20
2022-12-31T13:39:31.977Z,21.00
2022-12-31T13:42:03.764Z,10.80
2022-12-31T13:45:11.829Z,9.10
2022-12-31T13:47:45.978Z,5.70
2022-12-31T13:50:47.993Z,18.00
2022-12-31T13:53:31.599Z,4.50
2022-12-31T13:56:06.361Z,4.30
2022-12-31T13:59:30.287Z,4.90
2022-12-31T14:02:20.914Z,6.50
2022-12-31T14:04:56.157Z,5.40
2022-12-31T14:07:37.610Z,5.50
2022-12-31T14:10:16.248Z,5.50
2022-12-31T14:13:43.552Z,4.50
2022-12-31T14:16:46.768Z,4.70
2022-12-31T14:19:30.688Z,5.70
2022-12-31T14:22:13.729Z,4.70
2022-12-31T14:24:50.828Z,4.40
2022-12-31T14:27:26.052Z,4.10
2022-12-31T14:30:01.052Z,5.50
2022-12-31T14:32:37.519Z,4.20
2022-12-31T14:35:40.476Z,5.30
2022-12-31T14:38:47.638Z,3.30
2022-12-31T14:41:39.615Z,4.20
2022-12-31T14:44:38.859Z,4.50
2022-12-31T14:47:32.184Z,3.60
2022-12-31T14:50:34.775Z,4.70
2022-12-31T14:53:02.809Z,4.00
2022-12-31T14:55:41.489Z,4.90
2022-12-31T14:58:39.404Z,4.90
2022-12-31T15:01:24.772Z,5.40
2022-12-31T15:03:57.464Z,7.10
2022-12-31T15:07:00.769Z,5.40
2022-12-31T15:09:31.570Z,3.90
2022-12-31T15:12:42.897Z,4.30
2022-12-31T15:15:25.379Z,3.90
2022-12-31T15:18:16.718Z,4.20
2022-12-31T15:20:52.464Z,3.70
2022-12-31T15:23:25.545Z,4.00
2022-12-31T15:25:59.706Z,3.90
2022-12-31T15:28:39.411Z,3.40
2022-12-31T15:31:20.213Z,3.90
2022-12-31T15:34:05.089Z,4.60
2022-12-31T15:36:41.443Z,3.40
2022-12-31T15:39:11.489Z,4.30
2022-12-31T15:42:10.187Z,4.50
2022-12-31T15:44:59.587Z,4.10
2022-12-31T15:47:28.341Z,4.20
2022-12-31T15:50:02.263Z,4.70
2022-12-31T15:52:42.022Z,4.90
2022-12-31T15:55:25.084Z,4.40
2022-12-31T15:57:58.217Z,4.90
2022-12-31T16:00:35.330Z,5.20
2022-12-31T16:03:04.499Z,4.10
2022-12-31T16:05:35.612Z,4.80
2022-12-31T16:08:05.124Z,4.30
2022-12-31T16:10:34.549Z,3.70
2022-12-31T16:13:06.003Z,4.60
2022-12-31T16:15:35.201Z,8.60
2022-12-31T16:18:06.638Z,7.30
2022-12-31T16:20:42.990Z,4.60
2022-12-31T16:23:26.024Z,3.80
2022-12-31T16:25:59.789Z,4.50
2022-12-31T16:28:33.515Z,4.80
2022-12-31T16:33:32.242Z,4.60
2022-12-31T16:36:01.859Z,4.40
2022-12-31T16:38:37.261Z,5.40
2022-12-31T16:41:40.845Z,4.50
2022-12-31T16:44:30.096Z,4.90
2022-12-31T16:47:04.645Z,5.00
2022-12-31T16:49:43.123Z,5.60
2022-12-31T16:52:44.744Z,5.20
2022-12-31T16:55:21.409Z,5.70
2022-12-31T16:57:55.427Z,4.80
2022-12-31T17:00:26.130Z,6.00
2022-12-31T17:03:21.289Z,5.40
2022-12-31T17:09:25.262Z,4.80
2022-12-31T17:12:01.570Z,5.60
2022-12-31T17:14:30.181Z,5.40
2022-12-31T17:17:05.980Z,6.00
2022-12-31T17:19:45.031Z,5.60
2022-12-31T17:22:37.134Z,4.10
2022-12-31T17:25:22.713Z,4.70
2022-12-31T17:28:02.234Z,4.60
2022-12-31T17:30:33.429Z,4.30
2022-12-31T17:33:24.921Z,4.40
2022-12-31T17:36:12.981Z,5.10
2022-12-31T17:38:41.501Z,5.50
2022-12-31T17:41:28.438Z,5.10
2022-12-31T17:43:58.136Z,5.20
2022-12-31T17:46:28.368Z,4.40
2022-12-31T17:49:02.514Z,5.80
2022-12-31T17:51:59.411Z,5.10
2022-12-31T17:54:27.683Z,4.00
2022-12-31T17:56:55.755Z,4.90
2022-12-31T17:59:29.362Z,4.60
2022-12-31T18:04:28.758Z,4.50
2022-12-31T18:06:58.062Z,4.50
2022-12-31T18:09:27.391Z,6.00
2022-12-31T18:12:01.411Z,4.60
2022-12-31T18:14:30.695Z,5.10
2022-12-31T18:17:01.825Z,5.50
2022-12-31T18:20:02.850Z,4.60
2022-12-31T18:22:18.592Z,5.60
2022-12-31T18:24:51.470Z,5.10
2022-12-31T18:27:23.026Z,5.30
2022-12-31T18:29:51.080Z,6.40
2022-12-31T18:32:29.058Z,7.30
2022-12-31T18:34:56.839Z,6.40
2022-12-31T18:37:28.008Z,5.30
2022-12-31T18:39:57.382Z,4.50
2022-12-31T18:42:28.263Z,5.50
2022-12-31T18:44:57.030Z,5.10
2022-12-31T18:47:25.070Z,4.40
2022-12-31T18:49:56.442Z,4.70
2022-12-31T18:52:25.591Z,3.80
2022-12-31T18:54:56.593Z,5.30
2022-12-31T18:57:24.689Z,4.30
2022-12-31T18:59:52.732Z,4.60
2022-12-31T19:02:21.102Z,5.00
2022-12-31T19:04:50.599Z,5.00
2022-12-31T19:07:18.317Z,5.20
2022-12-31T19:09:53.014Z,5.20
2022-12-31T19:12:25.755Z,4.40
2022-12-31T19:14:56.314Z,4.90
2022-12-31T19:17:25.489Z,4.30
2022-12-31T19:19:57.338Z,5.00
2022-12-31T19:22:25.643Z,5.20
2022-12-31T19:24:54.146Z,5.20
2022-12-31T19:27:23.811Z,5.00
2022-12-31T19:29:52.097Z,4.80
2022-12-31T19:32:20.418Z,4.00
2022-12-31T19:34:52.658Z,4.20
2022-12-31T19:37:21.565Z,4.00
2022-12-31T19:39:50.242Z,4.10
2022-12-31T19:42:20.344Z,3.70
2022-12-31T19:44:48.996Z,4.70
2022-12-31T19:47:16.894Z,4.10
2022-12-31T19:49:46.396Z,4.80
2022-12-31T19:52:18.302Z,3.90
2022-12-31T19:54:46.910Z,4.40
2022-12-31T19:57:16.843Z,4.60
2022-12-31T19:59:47.965Z,4.50
2022-12-31T20:02:19.523Z,4.70
2022-12-31T20:04:49.391Z,5.40
2022-12-31T20:07:20.895Z,4.20
2022-12-31T20:09:53.408Z,4.60
2022-12-31T20:12:21.260Z,5.20
2022-12-31T20:14:51.842Z,5.10
2022-12-31T20:17:20.888Z,4.50
2022-12-31T20:19:49.581Z,5.10
2022-12-31T20:22:18.109Z,5.00
2022-12-31T20:24:46.295Z,5.30
2022-12-31T20:27:18.553Z,6.80
2022-12-31T20:29:47.131Z,6.50
2022-12-31T20:32:15.254Z,6.10
2022-12-31T20:34:43.727Z,4.50
2022-12-31T20:37:15.347Z,5.50
2022-12-31T20:39:43.869Z,4.90
2022-12-31T20:42:12.126Z,4.40
2022-12-31T20:44:41.592Z,4.10
2022-12-31T20:47:10.091Z,4.90
2022-12-31T20:50:10.872Z,4.90
2022-12-31T20:52:38.655Z,5.00
2022-12-31T20:55:07.869Z,4.10
2022-12-31T20:57:37.179Z,4.80
2022-12-31T21:00:07.729Z,4.60
2022-12-31T21:02:42.516Z,3.90
2022-12-31T21:05:12.563Z,4.70
2022-12-31T21:07:43.312Z,4.70
2022-12-31T21:10:11.799Z,3.70
2022-12-31T21:12:45.096Z,4.00
2022-12-31T21:15:14.457Z,5.00
2022-12-31T21:17:43.042Z,4.30
2022-12-31T21:20:13.084Z,3.90
2022-12-31T21:22:41.504Z,3.50
2022-12-31T21:25:13.273Z,3.80
2022-12-31T21:27:41.110Z,4.10
2022-12-31T21:30:19.595Z,3.60
2022-12-31T21:32:49.015Z,4.00
2022-12-31T21:38:07.550Z,4.10
2022-12-31T21:40:36.129Z,3.00
2022-12-31T21:43:04.825Z,3.50
2022-12-31T21:45:33.301Z,3.40
2022-12-31T21:48:20.281Z,3.80
2022-12-31T21:51:58.748Z,3.00
2022-12-31T21:54:46.850Z,2.90
2022-12-31T21:57:16.247Z,2.50
2022-12-31T22:00:39.765Z,2.90
2022-12-31T22:03:10.382Z,3.00
2022-12-31T22:05:51.074Z,3.00
2022-12-31T22:08:20.969Z,2.80
2022-12-31T22:10:52.749Z,3.10
2022-12-31T22:13:23.581Z,2.70
2022-12-31T22:15:58.746Z,3.10
2022-12-31T22:18:32.030Z,3.10
2022-12-31T22:21:02.944Z,3.10
2022-12-31T22:23:32.442Z,3.10
2022-12-31T22:26:02.383Z,2.60
2022-12-31T22:28:39.481Z,3.20
2022-12-31T22:31:36.715Z,2.60
2022-12-31T22:34:04.607Z,3.20
2022-12-31T22:36:32.875Z,2.90
2022-12-31T22:39:00.642Z,3.40
2022-12-31T22:41:31.121Z,3.00
2022-12-31T22:44:04.034Z,2.80
2022-12-31T22:46:33.496Z,3.30
2022-12-31T22:49:03.125Z,3.90
2022-12-31T22:52:04.196Z,3.00
2022-12-31T22:54:37.786Z,3.10
2022-12-31T22:57:07.196Z,3.20
2022-12-31T22:59:36.546Z,3.10
2022-12-31T23:02:07.931Z,3.40
2022-12-31T23:04:41.722Z,3.10
2022-12-31T23:07:16.802Z,4.30
2022-12-31T23:10:03.323Z,4.40
2022-12-31T23:12:32.365Z,6.40
2022-12-31T23:15:18.847Z,7.20
2022-12-31T23:18:05.194Z,5.90
2022-12-31T23:20:52.131Z,4.70
2022-12-31T23:23:20.458Z,5.00
2022-12-31T23:25:51.178Z,3.60
2022-12-31T23:28:22.092Z,4.40
2022-12-31T23:30:51.876Z,4.70
2022-12-31T23:33:22.946Z,4.20
2022-12-31T23:36:01.015Z,4.70
2022-12-31T23:38:28.838Z,4.00
2022-12-31T23:40:57.557Z,4.80
2022-12-31T23:43:26.941Z,3.80
2022-12-31T23:45:54.595Z,4.40
2022-12-31T23:48:22.799Z,3.70
2022-12-31T23:51:21.305Z,3.60
2022-12-31T23:53:51.250Z,3.40
2022-12-31T23:56:24.151Z,2.90
2022-12-31T23:58:58.260Z,3.80
